Voyager — C6WC2 — position and weather

sailwx.info

Track history (hours):
 
Tides and Currents Weather Stations Pressure Air Temp Water Temp Dewpoint Dewpoint Depression Visibility Wind Speed Wind Dir Waves Ship Positions

Voyager

Last reported at 2015-Jan-27 18:09 UTC. Time now 2015-Jan-28 09:20 UTC.
Position S 33°26' E 027°32'.

Length 151 m; draft 6 m.

Type: Passenger vessel. MMSI: 309695000.

Date/timePositionNaut miles runAvg speedWind from/ knotsBaromVisibWave heightAir tempDewpointWater temp
2015-Jan-27 18:09S 33°26' E 027°32'1111.8
2015-Jan-27 17:12S 33°20' E 027°43'25114.1
2015-Jan-26 23:24S 30°18' E 031°06'1315.8
2015-Jan-26 22:33S 30°05' E 031°11'1414.1
2015-Jan-26 21:34S 29°51' E 031°06'4 3.3
2015-Jan-26 20:30S 29°52' E 031°02'0 0.0
2015-Jan-26 19:30S 29°52' E 031°02'0 0.0
2015-Jan-26 18:30S 29°52' E 031°02'0 0.0
2015-Jan-26 17:24S 29°52' E 031°02'0 0.0
2015-Jan-26 16:30S 29°52' E 031°02'0 0.0
2015-Jan-26 15:30S 29°52' E 031°02'0 0.0
2015-Jan-26 14:24S 29°52' E 031°02'0 0.0
2015-Jan-26 13:24S 29°52' E 031°02'0 0.0
2015-Jan-26 12:30S 29°52' E 031°02'0 0.0
2015-Jan-26 11:18S 29°52' E 031°02'0 0.0
2015-Jan-26 10:30S 29°52' E 031°02'0 0.0
2015-Jan-26 09:30S 29°52' E 031°02'0 0.0
2015-Jan-26 05:30S 29°52' E 031°02'0 0.0
2015-Jan-26 02:30S 29°52' E 031°02'0 0.0
2015-Jan-25 22:06S 29°52' E 031°02'0 0.0
2015-Jan-25 20:18S 29°52' E 031°02'0 0.0
2015-Jan-25 19:30S 29°52' E 031°02'0 0.0
2015-Jan-25 15:30S 29°52' E 031°02'0 0.0
2015-Jan-25 14:18S 29°52' E 031°02'0 0.0
2015-Jan-25 13:30S 29°52' E 031°02'0 0.0
2015-Jan-25 12:30S 29°52' E 031°02'0 0.0
2015-Jan-25 11:30S 29°52' E 031°02'0 0.0
2015-Jan-25 10:30S 29°52' E 031°02'0 0.0
2015-Jan-25 09:24S 29°52' E 031°02'0 0.0
2015-Jan-25 08:30S 29°52' E 031°02'0 0.0
2015-Jan-25 07:24S 29°52' E 031°02'0 0.0
2015-Jan-25 05:18S 29°52' E 031°02'0 0.0
2015-Jan-25 04:30S 29°52' E 031°02'7 3.7
2015-Jan-25 02:33S 29°50' E 031°10'7614.7
2015-Jan-24 21:23S 28°57' E 032°12'11 1.3
2015-Jan-24 13:04S 28°48' E 032°05'0 0.0
2015-Jan-24 12:16S 28°48' E 032°05'0 0.0
2015-Jan-24 11:22S 28°48' E 032°05'0 0.0
2015-Jan-24 10:16S 28°48' E 032°05'95 2.4
2015-Jan-22 18:10S 30°20' E 031°37'  
2015-Jan-20 09:16S 33°27' E 027°29'1214.6
2015-Jan-20 08:26S 33°34' E 027°17'1314.1
2015-Jan-20 07:30S 33°44' E 027°07'42412.4
2015-Jan-18 21:25S 34°32' E 018°38'2812.6
2015-Jan-18 19:13S 34°14' E 018°12'1014.5
2015-Jan-18 18:33S 34°05' E 018°13'  
Track history (hours):
 
Tides and Currents Weather Stations Pressure Air Temp Water Temp Dewpoint Dewpoint Depression Visibility Wind Speed Wind Dir Waves Ship Positions

Voyager

Last reported at 2015-Jan-27 18:09 UTC. Time now 2015-Jan-28 09:20 UTC.
Position S 33°26' E 027°32'.

Length 151 m; draft 6 m.

Type: Passenger vessel. MMSI: 309695000.

Date/timePositionNaut miles runAvg speedWind from/ knotsBaromVisibWave heightAir tempDewpointWater temp
2015-Jan-27 18:09S 33°26' E 027°32'1111.8
2015-Jan-27 17:12S 33°20' E 027°43'25114.1
2015-Jan-26 23:24S 30°18' E 031°06'1315.8
2015-Jan-26 22:33S 30°05' E 031°11'1414.1
2015-Jan-26 21:34S 29°51' E 031°06'4 3.3
2015-Jan-26 20:30S 29°52' E 031°02'0 0.0
2015-Jan-26 19:30S 29°52' E 031°02'0 0.0
2015-Jan-26 18:30S 29°52' E 031°02'0 0.0
2015-Jan-26 17:24S 29°52' E 031°02'0 0.0
2015-Jan-26 16:30S 29°52' E 031°02'0 0.0
2015-Jan-26 15:30S 29°52' E 031°02'0 0.0
2015-Jan-26 14:24S 29°52' E 031°02'0 0.0
2015-Jan-26 13:24S 29°52' E 031°02'0 0.0
2015-Jan-26 12:30S 29°52' E 031°02'0 0.0
2015-Jan-26 11:18S 29°52' E 031°02'0 0.0
2015-Jan-26 10:30S 29°52' E 031°02'0 0.0
2015-Jan-26 09:30S 29°52' E 031°02'0 0.0
2015-Jan-26 05:30S 29°52' E 031°02'0 0.0
2015-Jan-26 02:30S 29°52' E 031°02'0 0.0
2015-Jan-25 22:06S 29°52' E 031°02'0 0.0
2015-Jan-25 20:18S 29°52' E 031°02'0 0.0
2015-Jan-25 19:30S 29°52' E 031°02'0 0.0
2015-Jan-25 15:30S 29°52' E 031°02'0 0.0
2015-Jan-25 14:18S 29°52' E 031°02'0 0.0
2015-Jan-25 13:30S 29°52' E 031°02'0 0.0
2015-Jan-25 12:30S 29°52' E 031°02'0 0.0
2015-Jan-25 11:30S 29°52' E 031°02'0 0.0
2015-Jan-25 10:30S 29°52' E 031°02'0 0.0
2015-Jan-25 09:24S 29°52' E 031°02'0 0.0
2015-Jan-25 08:30S 29°52' E 031°02'0 0.0
2015-Jan-25 07:24S 29°52' E 031°02'0 0.0
2015-Jan-25 05:18S 29°52' E 031°02'0 0.0
2015-Jan-25 04:30S 29°52' E 031°02'7 3.7
2015-Jan-25 02:33S 29°50' E 031°10'7614.7
2015-Jan-24 21:23S 28°57' E 032°12'11 1.3
2015-Jan-24 13:04S 28°48' E 032°05'0 0.0
2015-Jan-24 12:16S 28°48' E 032°05'0 0.0
2015-Jan-24 11:22S 28°48' E 032°05'0 0.0
2015-Jan-24 10:16S 28°48' E 032°05'95 2.4
2015-Jan-22 18:10S 30°20' E 031°37'  
2015-Jan-20 09:16S 33°27' E 027°29'1214.6
2015-Jan-20 08:26S 33°34' E 027°17'1314.1
2015-Jan-20 07:30S 33°44' E 027°07'42412.4
2015-Jan-18 21:25S 34°32' E 018°38'2812.6
2015-Jan-18 19:13S 34°14' E 018°12'1014.5
2015-Jan-18 18:33S 34°05' E 018°13'  

Dump ship's entire track history